Time;durP1;ratioP1;P1;durP2;ratioP2;P2;SDS_P1;SDS_P2;PMS_P1;PMS_P2;Temp;Humidity;BMP_temperature;BMP_pressure;BME280_temperature;BME280_humidity;BME280_pressure;Samples;Min_cycle;Max_cycle;Signal;HPM_P1;HPM_P2
2024/01/30 00:02:07;;;;;;;12.65;9.98;;;4.60;99.90;;;;;;5069798;27;20073;-88
2024/01/30 00:04:33;;;;;;;15.68;11.35;;;5.30;99.90;;;;;;5068333;28;20412;-88
2024/01/30 00:06:58;;;;;;;15.32;11.57;;;4.20;99.90;;;;;;5079360;27;20093;-87
2024/01/30 00:09:24;;;;;;;14.50;10.88;;;3.80;99.90;;;;;;5067468;28;20042;-88
2024/01/30 00:11:50;;;;;;;16.05;10.90;;;4.30;99.90;;;;;;5070636;27;20051;-87
2024/01/30 00:14:16;;;;;;;16.92;11.45;;;3.80;99.90;;;;;;5065399;28;20040;-87
2024/01/30 00:16:42;;;;;;;16.25;11.77;;;3.90;99.90;;;;;;5080689;28;20350;-88
2024/01/30 00:19:08;;;;;;;15.85;12.07;;;4.00;99.90;;;;;;5078870;28;20039;-88
2024/01/30 00:21:34;;;;;;;16.08;11.98;;;3.90;99.90;;;;;;5083189;28;20062;-88
2024/01/30 00:23:59;;;;;;;15.23;12.48;;;4.00;99.90;;;;;;5072229;28;20036;-88
2024/01/30 00:26:25;;;;;;;16.45;12.32;;;4.00;99.90;;;;;;5079860;28;20380;-88
2024/01/30 00:28:51;;;;;;;16.67;12.52;;;4.00;99.90;;;;;;5079444;28;20537;-88
2024/01/30 00:31:16;;;;;;;15.20;11.88;;;4.10;99.90;;;;;;5055965;28;20070;-87
2024/01/30 00:33:43;;;;;;;16.75;12.25;;;4.00;99.90;;;;;;5069988;28;20040;-87
2024/01/30 00:36:10;;;;;;;17.95;12.85;;;4.70;99.90;;;;;;5071062;28;20448;-88
2024/01/30 00:38:36;;;;;;;16.55;12.30;;;3.70;99.90;;;;;;5079940;28;20050;-88
2024/01/30 00:41:02;;;;;;;16.27;12.73;;;4.30;99.90;;;;;;5052139;28;20377;-87
2024/01/30 00:43:28;;;;;;;16.60;12.75;;;3.80;99.90;;;;;;5052532;28;20050;-88
2024/01/30 00:45:54;;;;;;;17.33;12.65;;;4.00;99.90;;;;;;5083950;28;20127;-87
2024/01/30 00:48:20;;;;;;;17.90;12.00;;;4.00;99.90;;;;;;5078640;28;20433;-88
2024/01/30 00:50:46;;;;;;;18.55;12.77;;;3.90;99.90;;;;;;5069744;28;20088;-88
2024/01/30 00:53:12;;;;;;;16.85;12.35;;;4.00;99.90;;;;;;5073844;28;20444;-88
2024/01/30 00:55:38;;;;;;;16.60;13.32;;;4.20;99.90;;;;;;5093017;28;20127;-88
2024/01/30 00:58:05;;;;;;;15.88;12.45;;;3.80;99.90;;;;;;5053514;28;20465;-88
2024/01/30 01:00:31;;;;;;;16.13;12.40;;;4.30;99.90;;;;;;5078077;28;20031;-87
2024/01/30 01:02:58;;;;;;;16.10;12.07;;;3.90;99.90;;;;;;5082776;28;20058;-88
2024/01/30 01:05:24;;;;;;;18.20;12.60;;;4.00;99.90;;;;;;5092799;28;20409;-88
2024/01/30 01:07:50;;;;;;;18.20;12.52;;;4.00;99.90;;;;;;5083142;28;20072;-87
2024/01/30 01:10:19;;;;;;;20.67;13.00;;;4.10;99.90;;;;;;5053218;28;20405;-88
2024/01/30 01:12:45;;;;;;;23.08;14.45;;;3.80;99.90;;;;;;5079195;28;20040;-87
2024/01/30 01:15:11;;;;;;;19.00;12.77;;;3.70;99.90;;;;;;5084812;28;20035;-87
2024/01/30 01:17:38;;;;;;;18.20;12.88;;;3.80;99.90;;;;;;5070644;28;20105;-88
2024/01/30 01:20:06;;;;;;;18.35;13.13;;;4.00;99.90;;;;;;5079581;28;20491;-87
2024/01/30 01:22:32;;;;;;;;;;;4.00;99.90;;;;;;5078775;28;20094;-87
2024/01/30 01:24:58;;;;;;;16.33;13.43;;;3.90;99.90;;;;;;5081832;27;19919;-87
2024/01/30 01:27:23;;;;;;;18.48;14.05;;;4.10;99.90;;;;;;5057967;27;20042;-88
2024/01/30 01:29:49;;;;;;;17.52;13.27;;;4.30;99.90;;;;;;5098899;27;20044;-88
2024/01/30 01:32:15;;;;;;;17.83;13.07;;;4.00;99.90;;;;;;5063226;28;20172;-88
2024/01/30 01:34:40;;;;;;;18.20;13.65;;;4.00;99.90;;;;;;5061193;27;20050;-88
2024/01/30 01:37:07;;;;;;;17.75;14.02;;;4.20;99.90;;;;;;5065023;27;20073;-88
2024/01/30 01:39:33;;;;;;;22.98;14.77;;;4.20;99.90;;;;;;5052854;27;20693;-88
2024/01/30 01:41:58;;;;;;;18.27;13.25;;;4.40;99.90;;;;;;5081606;27;20118;-88
2024/01/30 01:44:24;;;;;;;18.73;13.60;;;4.30;99.90;;;;;;5085755;28;20124;-88
2024/01/30 01:46:52;;;;;;;17.40;13.98;;;4.20;99.90;;;;;;5057555;28;20043;-88
2024/01/30 01:49:19;;;;;;;21.17;13.98;;;4.70;99.90;;;;;;5086684;27;20464;-87
2024/01/30 01:51:46;;;;;;;16.02;12.85;;;4.10;99.90;;;;;;5090181;28;20526;-88
2024/01/30 01:54:12;;;;;;;19.75;13.82;;;4.40;99.90;;;;;;5061525;28;20506;-88
2024/01/30 01:56:38;;;;;;;18.25;14.25;;;4.10;99.90;;;;;;5082792;27;20500;-88
2024/01/30 01:59:08;;;;;;;18.67;13.98;;;4.00;99.90;;;;;;5090483;27;20039;-88
2024/01/30 02:01:37;;;;;;;22.52;14.57;;;4.10;99.90;;;;;;5057271;28;20059;-88
2024/01/30 02:04:04;;;;;;;19.63;13.95;;;4.50;99.90;;;;;;5081968;27;20031;-88
2024/01/30 02:06:30;;;;;;;19.02;14.23;;;4.30;99.90;;;;;;5094812;28;20036;-88
2024/01/30 02:08:55;;;;;;;19.13;13.75;;;4.20;99.90;;;;;;5093400;27;20050;-87
2024/01/30 02:11:22;;;;;;;18.30;13.40;;;4.20;99.90;;;;;;5071675;28;20176;-88
2024/01/30 02:13:49;;;;;;;17.80;13.57;;;4.20;99.90;;;;;;5074465;27;20043;-88
2024/01/30 02:16:14;;;;;;;19.35;14.07;;;4.20;99.90;;;;;;5063562;27;20027;-89
2024/01/30 02:18:45;;;;;;;18.27;13.70;;;4.10;99.90;;;;;;5081615;27;20046;-88
2024/01/30 02:21:10;;;;;;;19.42;14.57;;;4.10;99.90;;;;;;5062424;28;20042;-88
2024/01/30 02:23:37;;;;;;;20.42;14.70;;;4.20;99.90;;;;;;5077073;27;20408;-88
2024/01/30 02:26:03;;;;;;;19.20;14.73;;;4.10;99.90;;;;;;5072042;28;20098;-88
2024/01/30 02:28:29;;;;;;;20.40;14.27;;;4.20;99.90;;;;;;5098045;27;20062;-88
2024/01/30 02:30:55;;;;;;;21.52;14.30;;;4.30;99.90;;;;;;5085913;28;20039;-88
2024/01/30 02:33:21;;;;;;;20.98;14.95;;;4.40;99.90;;;;;;5068279;27;20032;-89
2024/01/30 02:35:48;;;;;;;18.88;14.18;;;4.30;99.90;;;;;;5056028;28;20035;-88
2024/01/30 02:38:16;;;;;;;21.73;15.43;;;4.30;99.90;;;;;;5081496;27;20031;-88
2024/01/30 02:40:42;;;;;;;20.67;14.50;;;4.80;99.90;;;;;;5084933;28;20044;-87
2024/01/30 02:43:08;;;;;;;20.37;13.93;;;4.40;99.90;;;;;;5064271;28;20080;-88
2024/01/30 02:45:34;;;;;;;18.77;14.02;;;4.40;99.90;;;;;;5073798;27;20500;-87
2024/01/30 02:48:00;;;;;;;16.38;13.05;;;4.30;99.90;;;;;;5081342;27;20047;-88
2024/01/30 02:50:25;;;;;;;20.25;13.73;;;4.50;99.90;;;;;;5079293;27;20035;-88
2024/01/30 02:52:51;;;;;;;20.15;14.27;;;4.50;99.90;;;;;;5071369;27;20039;-87
2024/01/30 02:55:19;;;;;;;19.73;14.35;;;4.70;99.90;;;;;;5074009;27;20070;-87
2024/01/30 02:57:45;;;;;;;19.88;14.07;;;4.60;99.90;;;;;;5059555;28;20100;-87
2024/01/30 03:00:11;;;;;;;18.40;13.55;;;4.60;99.90;;;;;;5079778;27;20039;-87
2024/01/30 03:02:37;;;;;;;18.55;14.43;;;4.50;99.90;;;;;;5095590;28;20050;-88
2024/01/30 03:05:07;;;;;;;18.77;13.90;;;4.60;99.90;;;;;;5066500;27;20039;-87
2024/01/30 03:07:33;;;;;;;23.55;14.57;;;4.50;99.90;;;;;;5084564;28;20054;-88
2024/01/30 03:09:59;;;;;;;20.75;14.32;;;4.70;99.90;;;;;;5075123;28;20075;-88
2024/01/30 03:12:25;;;;;;;16.48;13.65;;;4.70;99.90;;;;;;5052119;28;20152;-88
2024/01/30 03:14:50;;;;;;;17.92;13.27;;;4.60;99.90;;;;;;5070299;27;20039;-88
2024/01/30 03:17:16;;;;;;;17.45;13.32;;;4.70;99.90;;;;;;5087303;28;20039;-88
2024/01/30 03:19:42;;;;;;;19.33;13.32;;;4.70;99.90;;;;;;5072020;28;20050;-88
2024/01/30 03:22:07;;;;;;;17.52;13.65;;;4.80;99.90;;;;;;5079375;28;20066;-88
2024/01/30 03:24:33;;;;;;;19.02;13.68;;;5.00;99.90;;;;;;5071762;27;20065;-88
2024/01/30 03:26:59;;;;;;;17.30;13.45;;;4.90;99.90;;;;;;5090617;27;20027;-87
2024/01/30 03:29:25;;;;;;;21.08;14.13;;;4.90;99.90;;;;;;5085672;27;20047;-87
2024/01/30 03:31:50;;;;;;;17.67;13.02;;;4.80;99.90;;;;;;5065213;28;20043;-87
2024/01/30 03:34:16;;;;;;;17.65;12.45;;;5.00;99.90;;;;;;5082292;27;20042;-87
2024/01/30 03:36:42;;;;;;;16.70;12.73;;;5.00;99.90;;;;;;5062531;27;20031;-88
2024/01/30 03:39:07;;;;;;;17.42;13.45;;;4.90;99.90;;;;;;5077043;27;20405;-88
2024/01/30 03:41:33;;;;;;;18.10;13.23;;;4.80;99.90;;;;;;5077446;28;20114;-88
2024/01/30 03:43:59;;;;;;;16.77;12.85;;;5.00;99.90;;;;;;5072730;27;20050;-87
2024/01/30 03:46:24;;;;;;;15.15;12.35;;;4.90;99.90;;;;;;5053769;27;20078;-87
2024/01/30 03:48:50;;;;;;;17.20;13.13;;;4.80;99.90;;;;;;5101668;28;20043;-88
2024/01/30 03:51:16;;;;;;;17.67;12.57;;;4.90;99.90;;;;;;5053587;28;20078;-88
2024/01/30 03:53:42;;;;;;;17.05;12.93;;;4.90;99.90;;;;;;5108805;27;20031;-88
2024/01/30 03:56:09;;;;;;;16.95;12.65;;;4.80;99.90;;;;;;5089320;27;20535;-88
2024/01/30 03:58:35;;;;;;;16.98;12.57;;;5.20;99.90;;;;;;5098110;27;20092;-86
2024/01/30 04:01:01;;;;;;;16.48;12.30;;;5.00;99.90;;;;;;5104629;28;20043;-88
2024/01/30 04:03:26;;;;;;;17.38;12.98;;;5.00;99.90;;;;;;5090413;28;20069;-87
2024/01/30 04:05:53;;;;;;;18.10;12.45;;;5.10;99.90;;;;;;5061826;28;20046;-88
2024/01/30 04:08:19;;;;;;;17.30;13.35;;;5.00;99.90;;;;;;5090422;28;20419;-87
2024/01/30 04:10:44;;;;;;;18.35;12.57;;;5.10;99.90;;;;;;5071728;28;20109;-88
2024/01/30 04:13:10;;;;;;;17.05;12.25;;;5.10;99.90;;;;;;5058962;28;20032;-88
2024/01/30 04:15:36;;;;;;;17.23;12.80;;;5.20;99.90;;;;;;5052878;28;20098;-88
2024/01/30 04:18:02;;;;;;;15.82;12.52;;;5.30;99.90;;;;;;5053029;28;20090;-88
2024/01/30 04:20:27;;;;;;;19.27;13.30;;;5.30;99.90;;;;;;5045359;28;20040;-88
2024/01/30 04:22:53;;;;;;;18.33;13.15;;;5.30;99.90;;;;;;5052336;28;20048;-88
2024/01/30 04:25:19;;;;;;;18.13;13.13;;;;;;;;;;5063195;28;20040;-88
2024/01/30 04:27:45;;;;;;;18.45;12.73;;;5.30;99.90;;;;;;5063465;28;20045;-87
2024/01/30 04:30:11;;;;;;;16.77;12.18;;;5.40;99.90;;;;;;5079294;28;20046;-88
2024/01/30 04:32:37;;;;;;;17.50;12.85;;;5.40;99.90;;;;;;5027969;28;20107;-88
2024/01/30 04:35:03;;;;;;;14.35;11.93;;;5.50;99.90;;;;;;5045782;28;20064;-88
2024/01/30 04:37:29;;;;;;;16.73;12.27;;;5.40;99.90;;;;;;5035754;28;20098;-88
2024/01/30 04:39:55;;;;;;;15.13;12.50;;;5.60;99.90;;;;;;5061256;28;20071;-88
2024/01/30 04:42:20;;;;;;;17.67;12.45;;;5.70;99.90;;;;;;5086000;28;20050;-86
2024/01/30 04:44:46;;;;;;;15.32;11.48;;;5.60;99.90;;;;;;5054733;28;20058;-87
2024/01/30 04:47:13;;;;;;;16.30;11.85;;;4.40;99.90;;;;;;5042918;28;20085;-88
2024/01/30 04:49:42;;;;;;;15.35;11.27;;;5.70;99.90;;;;;;5053719;28;20055;-87
2024/01/30 04:52:08;;;;;;;15.30;11.45;;;5.70;99.90;;;;;;5053996;28;20119;-87
2024/01/30 04:54:37;;;;;;;15.55;11.15;;;;;;;;;;5077977;28;20033;-87
2024/01/30 04:57:05;;;;;;;15.10;11.13;;;;;;;;;;5066812;28;20032;-88
2024/01/30 04:59:31;;;;;;;15.75;11.85;;;6.00;99.90;;;;;;5090347;28;20421;-86
2024/01/30 05:01:57;;;;;;;14.00;10.93;;;6.00;99.90;;;;;;5060949;28;20043;-88
2024/01/30 05:04:23;;;;;;;17.73;12.43;;;5.90;99.90;;;;;;5049268;28;20036;-87
2024/01/30 05:06:49;;;;;;;15.48;11.68;;;6.00;99.90;;;;;;5063230;28;20458;-87
2024/01/30 05:09:14;;;;;;;14.32;10.48;;;6.00;99.90;;;;;;5063750;28;20041;-87
2024/01/30 05:11:41;;;;;;;14.82;11.02;;;6.00;99.90;;;;;;5050188;28;20079;-87
2024/01/30 05:14:08;;;;;;;15.43;10.60;;;5.90;99.90;;;;;;5063729;28;20493;-87
2024/01/30 05:16:34;;;;;;;12.50;10.55;;;6.10;99.90;;;;;;5072429;28;20481;-88
2024/01/30 05:19:00;;;;;;;14.45;10.85;;;6.00;99.90;;;;;;5072414;28;20294;-87
2024/01/30 05:21:26;;;;;;;16.42;11.00;;;6.10;99.90;;;;;;5070812;28;20032;-88
2024/01/30 05:23:52;;;;;;;15.68;10.00;;;6.20;99.90;;;;;;5091488;28;20127;-87
2024/01/30 05:26:18;;;;;;;13.35;10.85;;;6.10;99.90;;;;;;5081328;28;20122;-86
2024/01/30 05:28:46;;;;;;;13.50;10.73;;;6.10;99.90;;;;;;5086150;28;20036;-87
2024/01/30 05:31:12;;;;;;;14.15;11.35;;;6.10;99.90;;;;;;5071682;28;20040;-87
2024/01/30 05:33:38;;;;;;;13.15;10.95;;;6.20;99.90;;;;;;5071418;28;20036;-87
2024/01/30 05:36:04;;;;;;;16.55;10.80;;;6.20;99.90;;;;;;5050858;28;20036;-87
2024/01/30 05:38:32;;;;;;;14.60;10.90;;;6.30;99.90;;;;;;5070829;28;20499;-88
2024/01/30 05:40:58;;;;;;;16.05;10.32;;;6.20;99.90;;;;;;5057196;28;20111;-87
2024/01/30 05:43:24;;;;;;;14.48;10.77;;;6.20;99.90;;;;;;5056732;28;20040;-88
2024/01/30 05:45:50;;;;;;;11.07;9.20;;;6.40;99.90;;;;;;5040897;28;20041;-88
2024/01/30 05:48:16;;;;;;;14.05;10.15;;;6.30;99.90;;;;;;5054229;28;20032;-88
2024/01/30 05:50:42;;;;;;;11.23;9.40;;;6.30;99.90;;;;;;5058302;28;20157;-87
2024/01/30 05:53:07;;;;;;;14.25;10.63;;;6.40;99.90;;;;;;5054907;28;20470;-87
2024/01/30 05:55:33;;;;;;;11.18;9.98;;;;;;;;;;5056456;28;20032;-87
2024/01/30 05:57:59;;;;;;;15.55;9.80;;;6.30;99.90;;;;;;5054616;28;20453;-87
2024/01/30 06:00:25;;;;;;;13.07;9.40;;;6.40;99.90;;;;;;5057532;28;20044;-87
2024/01/30 06:02:50;;;;;;;14.88;10.50;;;6.40;99.90;;;;;;5073475;28;20048;-88
2024/01/30 06:05:16;;;;;;;13.98;9.55;;;6.30;99.90;;;;;;5053670;28;20380;-87
2024/01/30 06:07:42;;;;;;;11.18;9.27;;;6.40;99.90;;;;;;5056996;28;20048;-87
2024/01/30 06:10:08;;;;;;;11.85;10.10;;;6.30;99.90;;;;;;5040985;28;20041;-88
2024/01/30 06:12:35;;;;;;;12.95;9.57;;;6.50;99.90;;;;;;5071828;28;20059;-87
2024/01/30 06:15:01;;;;;;;13.77;10.15;;;6.50;99.90;;;;;;5048084;28;20047;-88
2024/01/30 06:17:26;;;;;;;13.27;10.68;;;6.40;99.90;;;;;;5052867;28;20051;-87
2024/01/30 06:19:52;;;;;;;14.75;9.85;;;6.50;99.90;;;;;;5072409;28;20044;-87
2024/01/30 06:22:18;;;;;;;17.45;10.05;;;6.50;99.90;;;;;;5071584;28;20044;-87
2024/01/30 06:24:53;;;;;;;13.23;9.82;;;6.40;99.90;;;;;;5067679;28;20124;-88
2024/01/30 06:27:18;;;;;;;12.73;10.05;;;6.50;99.90;;;;;;5064729;28;20063;-87
2024/01/30 06:29:44;;;;;;;12.00;9.23;;;6.50;99.90;;;;;;5055181;28;20496;-88
2024/01/30 06:32:09;;;;;;;11.70;9.05;;;6.50;99.90;;;;;;5035035;28;20040;-88
2024/01/30 06:34:36;;;;;;;12.00;9.48;;;6.50;99.90;;;;;;5055779;28;20389;-88
2024/01/30 06:37:01;;;;;;;13.60;9.63;;;6.60;99.90;;;;;;5070669;28;20036;-87
2024/01/30 06:39:27;;;;;;;12.93;9.77;;;6.60;99.90;;;;;;5052919;28;20085;-87
2024/01/30 06:41:53;;;;;;;15.55;9.38;;;6.70;99.90;;;;;;5061901;28;20031;-88
2024/01/30 06:44:18;;;;;;;12.77;9.18;;;6.50;99.90;;;;;;5079235;28;20468;-88
2024/01/30 06:46:44;;;;;;;10.63;9.20;;;6.60;99.90;;;;;;5062189;28;20075;-87
2024/01/30 06:49:10;;;;;;;14.45;9.45;;;6.50;99.90;;;;;;5065042;28;20032;-88
2024/01/30 06:51:35;;;;;;;13.32;8.98;;;6.60;99.90;;;;;;5060079;28;20079;-87
2024/01/30 06:54:01;;;;;;;11.02;9.02;;;6.60;99.90;;;;;;5047601;28;20071;-88
2024/01/30 06:56:27;;;;;;;13.02;10.27;;;6.60;99.90;;;;;;5038068;28;20043;-87
2024/01/30 06:58:53;;;;;;;10.27;8.68;;;6.60;99.90;;;;;;5074510;28;20051;-88
2024/01/30 07:01:19;;;;;;;11.68;9.48;;;6.60;99.90;;;;;;5032922;28;20247;-88
2024/01/30 07:03:44;;;;;;;12.07;9.25;;;6.60;99.90;;;;;;5045147;28;20036;-87
2024/01/30 07:06:13;;;;;;;15.80;9.20;;;6.80;99.90;;;;;;5027830;28;20144;-86
2024/01/30 07:08:39;;;;;;;11.55;8.75;;;6.70;99.90;;;;;;5066959;28;20081;-87
2024/01/30 07:11:06;;;;;;;12.45;9.43;;;6.70;99.90;;;;;;5071448;28;20489;-88
2024/01/30 07:13:32;;;;;;;11.77;8.93;;;6.70;99.90;;;;;;5042496;28;20445;-89
2024/01/30 07:15:58;;;;;;;11.13;8.48;;;6.70;99.90;;;;;;5071502;28;20036;-88
2024/01/30 07:18:24;;;;;;;10.45;8.30;;;6.70;99.90;;;;;;5034756;28;20032;-87
2024/01/30 07:20:49;;;;;;;10.68;8.85;;;6.80;99.90;;;;;;5047351;28;20055;-87
2024/01/30 07:23:17;;;;;;;13.75;8.90;;;6.70;99.90;;;;;;5080086;28;20358;-89
2024/01/30 07:25:43;;;;;;;;;;;6.90;99.90;;;;;;5055306;28;20047;-88
2024/01/30 07:28:10;;;;;;;13.25;8.63;;;6.90;99.90;;;;;;5064897;28;19979;-88
2024/01/30 07:30:36;;;;;;;14.13;9.48;;;6.90;99.90;;;;;;5072497;28;20178;-87
2024/01/30 07:33:02;;;;;;;12.57;9.23;;;6.80;99.90;;;;;;5071076;28;20138;-88
2024/01/30 08:38:00;;;;;;;15.68;11.55;;;7.40;99.90;;;;;;5004931;27;1525762;-85
2024/01/30 08:40:26;;;;;;;13.43;10.60;;;7.40;99.90;;;;;;5009169;28;20056;-85
2024/01/30 08:42:52;;;;;;;13.40;10.13;;;7.40;99.90;;;;;;5021185;28;20049;-85
2024/01/30 08:45:18;;;;;;;11.40;8.88;;;7.30;99.90;;;;;;4992744;28;20120;-85
2024/01/30 08:47:44;;;;;;;12.77;9.35;;;7.60;99.90;;;;;;4990841;28;20092;-85
2024/01/30 08:50:10;;;;;;;11.57;8.37;;;7.60;99.90;;;;;;5001077;28;20128;-85
2024/01/30 08:52:37;;;;;;;11.40;8.55;;;7.60;99.90;;;;;;5007798;28;20555;-85
2024/01/30 08:55:03;;;;;;;11.33;9.00;;;;;;;;;;4992494;28;20041;-85
2024/01/30 08:57:29;;;;;;;11.63;8.70;;;7.80;99.90;;;;;;5026791;28;20472;-85
2024/01/30 08:59:55;;;;;;;11.85;8.80;;;7.90;99.90;;;;;;4994071;28;20084;-85
2024/01/30 09:02:20;;;;;;;10.35;8.35;;;8.00;99.90;;;;;;5007544;28;20315;-85
2024/01/30 09:04:46;;;;;;;13.77;9.00;;;8.10;99.90;;;;;;4990580;28;20041;-84
2024/01/30 09:07:13;;;;;;;12.90;9.05;;;8.00;99.90;;;;;;4988575;28;20116;-85
2024/01/30 09:09:43;;;;;;;12.68;8.95;;;8.20;99.90;;;;;;5004232;28;20065;-85
2024/01/30 09:12:11;;;;;;;9.88;8.38;;;8.30;99.90;;;;;;5021753;28;20067;-84
2024/01/30 09:14:40;;;;;;;13.10;8.80;;;8.20;99.90;;;;;;5002641;28;20068;-85
2024/01/30 09:17:07;;;;;;;12.20;8.43;;;8.30;99.90;;;;;;5016816;28;20053;-85
2024/01/30 09:19:32;;;;;;;11.40;8.82;;;8.40;99.90;;;;;;5007871;28;20136;-85
2024/01/30 09:21:58;;;;;;;11.77;8.75;;;8.40;99.90;;;;;;4996245;28;20123;-85
2024/01/30 09:24:24;;;;;;;9.38;7.47;;;8.40;99.90;;;;;;4991740;28;20081;-85
2024/01/30 09:26:50;;;;;;;12.13;8.85;;;8.40;99.90;;;;;;5003304;28;20508;-85
2024/01/30 09:29:16;;;;;;;11.10;8.32;;;8.50;99.90;;;;;;4992186;28;20073;-85
2024/01/30 09:31:45;;;;;;;12.35;7.80;;;8.50;99.90;;;;;;4992312;28;20076;-83
2024/01/30 09:34:12;;;;;;;10.23;7.85;;;8.50;99.90;;;;;;5023841;28;20582;-85
2024/01/30 09:36:37;;;;;;;9.77;7.40;;;8.60;99.90;;;;;;4990485;28;20061;-85
2024/01/30 09:39:04;;;;;;;9.00;8.10;;;8.70;99.90;;;;;;4989148;28;20114;-85
2024/01/30 09:41:33;;;;;;;10.05;8.10;;;8.80;99.90;;;;;;4981322;28;20466;-84
2024/01/30 09:44:02;;;;;;;11.65;7.93;;;8.90;99.90;;;;;;5013348;28;20098;-85
2024/01/30 09:46:29;;;;;;;11.32;7.65;;;9.00;99.90;;;;;;5016786;28;20053;-84
2024/01/30 09:48:57;;;;;;;15.07;7.47;;;9.10;99.90;;;;;;4975425;28;20319;-85
2024/01/30 09:51:24;;;;;;;10.30;6.97;;;9.10;99.90;;;;;;4997591;28;20034;-85
2024/01/30 09:53:50;;;;;;;10.18;7.75;;;9.10;99.90;;;;;;4991683;28;20486;-84
2024/01/30 09:56:16;;;;;;;11.40;8.55;;;9.30;99.90;;;;;;4991444;28;20041;-85
2024/01/30 09:58:42;;;;;;;11.13;8.68;;;9.40;99.90;;;;;;4997986;28;20037;-85
2024/01/30 10:01:08;;;;;;;12.00;8.40;;;9.40;99.90;;;;;;4995974;28;20057;-85
2024/01/30 10:03:35;;;;;;;13.15;7.95;;;9.30;99.90;;;;;;4975542;28;20597;-85
2024/01/30 10:06:02;;;;;;;11.45;8.23;;;9.50;99.90;;;;;;4990635;28;20048;-85
2024/01/30 10:08:29;;;;;;;9.05;7.80;;;9.40;99.90;;;;;;4999203;28;20097;-85
2024/01/30 10:10:55;;;;;;;11.95;7.70;;;9.40;99.90;;;;;;4993742;28;20040;-85
2024/01/30 10:13:21;;;;;;;9.38;7.07;;;9.50;99.90;;;;;;4986020;28;20037;-86
2024/01/30 10:15:48;;;;;;;11.68;7.00;;;9.40;99.90;;;;;;4978761;28;20079;-85
2024/01/30 10:18:15;;;;;;;11.38;7.43;;;9.50;99.90;;;;;;4992032;28;20046;-85
2024/01/30 10:20:41;;;;;;;10.45;7.47;;;9.50;99.90;;;;;;4963766;28;20114;-84
2024/01/30 10:23:07;;;;;;;11.98;7.57;;;9.50;99.90;;;;;;4978898;28;20042;-85
2024/01/30 10:25:33;;;;;;;10.18;7.38;;;9.50;99.90;;;;;;4989171;28;20465;-85
2024/01/30 10:27:59;;;;;;;8.52;6.68;;;9.60;99.90;;;;;;5006053;28;20075;-85
2024/01/30 10:30:27;;;;;;;13.13;7.75;;;9.70;99.90;;;;;;4987835;28;20033;-85
2024/01/30 10:32:52;;;;;;;10.43;8.23;;;9.70;99.90;;;;;;4994754;28;20097;-87
2024/01/30 10:35:18;;;;;;;11.35;7.80;;;9.70;99.90;;;;;;4996225;28;20037;-85
2024/01/30 10:37:47;;;;;;;11.77;7.60;;;9.80;99.90;;;;;;5011429;28;20121;-84
2024/01/30 10:40:14;;;;;;;9.88;7.00;;;9.80;99.90;;;;;;5005392;28;20052;-86
2024/01/30 10:42:43;;;;;;;10.95;7.22;;;9.80;99.90;;;;;;5014226;28;20033;-85
2024/01/30 10:45:13;;;;;;;11.23;7.68;;;9.80;99.90;;;;;;5002838;28;20049;-85
2024/01/30 10:47:50;;;;;;;15.88;7.68;;;9.80;99.90;;;;;;5014262;28;20106;-85
2024/01/30 10:50:16;;;;;;;11.73;7.68;;;9.80;99.90;;;;;;4992489;28;20057;-85
2024/01/30 10:52:43;;;;;;;9.57;7.57;;;9.90;99.90;;;;;;4995857;28;20042;-85
2024/01/30 10:55:10;;;;;;;10.57;7.40;;;9.90;99.90;;;;;;4989508;28;20037;-85
2024/01/30 10:57:38;;;;;;;11.52;7.35;;;9.80;99.90;;;;;;5010709;28;20410;-84
2024/01/30 11:00:12;;;;;;;10.50;7.80;;;9.90;99.90;;;;;;5024388;28;20498;-85
2024/01/30 11:02:44;;;;;;;10.60;7.03;;;9.80;99.90;;;;;;5009566;28;20375;-85
2024/01/30 11:05:10;;;;;;;11.30;7.75;;;9.80;99.90;;;;;;5015886;28;20127;-85
2024/01/30 11:07:38;;;;;;;11.32;8.02;;;9.90;99.90;;;;;;4993138;28;20061;-85
2024/01/30 11:10:05;;;;;;;10.52;7.60;;;9.90;99.90;;;;;;4983922;28;20307;-85
2024/01/30 11:12:44;;;;;;;14.23;7.88;;;10.00;99.90;;;;;;5027199;28;20042;-85
2024/01/30 11:15:10;;;;;;;14.73;8.05;;;10.00;99.90;;;;;;5011120;28;20505;-85
2024/01/30 11:17:52;;;;;;;8.65;7.20;;;10.00;99.90;;;;;;4993549;28;20749;-85
2024/01/30 11:20:27;;;;;;;8.57;7.25;;;9.90;99.90;;;;;;5002974;28;20446;-85
2024/01/30 11:22:56;;;;;;;11.45;7.60;;;10.00;99.90;;;;;;4996665;28;20053;-85
2024/01/30 11:25:23;;;;;;;10.80;7.90;;;9.90;99.90;;;;;;4993296;28;20128;-85
2024/01/30 11:27:54;;;;;;;11.98;7.40;;;9.90;99.90;;;;;;4995715;28;20034;-86
2024/01/30 11:30:31;;;;;;;14.68;7.38;;;9.90;99.90;;;;;;5003678;28;20049;-85
2024/01/30 11:33:12;;;;;;;12.20;6.63;;;10.00;99.90;;;;;;4996006;28;20052;-85
2024/01/30 11:35:42;;;;;;;11.40;7.15;;;10.00;99.90;;;;;;4997641;28;20034;-85
2024/01/30 11:38:10;;;;;;;10.55;6.55;;;10.00;99.90;;;;;;5001135;28;20058;-86
2024/01/30 11:40:37;;;;;;;11.07;5.70;;;9.90;99.90;;;;;;4999009;28;20061;-85
2024/01/30 11:43:05;;;;;;;11.15;6.13;;;9.90;99.90;;;;;;4991340;28;20053;-85
2024/01/30 11:45:32;;;;;;;11.60;4.97;;;10.00;99.90;;;;;;4985376;28;20062;-86
2024/01/30 11:48:03;;;;;;;9.30;5.10;;;9.90;99.90;;;;;;4986332;28;20458;-85
2024/01/30 11:50:30;;;;;;;9.30;4.18;;;9.90;99.90;;;;;;5000233;28;20041;-85
2024/01/30 11:52:56;;;;;;;9.23;4.20;;;9.80;99.90;;;;;;5011043;28;20049;-86
2024/01/30 11:55:24;;;;;;;8.20;4.30;;;9.90;99.90;;;;;;4985170;28;20095;-85
2024/01/30 11:57:54;;;;;;;6.88;3.72;;;10.00;99.90;;;;;;4998348;28;20041;-86
2024/01/30 12:00:20;;;;;;;7.22;4.07;;;9.90;99.90;;;;;;5009255;28;20238;-86
2024/01/30 12:03:00;;;;;;;8.27;3.78;;;9.90;99.90;;;;;;5034170;28;20125;-85
2024/01/30 12:05:28;;;;;;;7.65;3.17;;;10.00;99.90;;;;;;4988571;28;20038;-85
2024/01/30 12:07:53;;;;;;;8.85;3.13;;;10.00;99.90;;;;;;4986313;28;20071;-85
2024/01/30 12:10:21;;;;;;;7.80;2.53;;;10.00;99.90;;;;;;4978628;28;20049;-86
2024/01/30 12:12:49;;;;;;;7.00;2.72;;;10.00;99.90;;;;;;4981696;28;20063;-86
2024/01/30 12:15:16;;;;;;;5.18;2.53;;;10.00;99.90;;;;;;5024961;28;20101;-85
2024/01/30 12:17:42;;;;;;;4.97;2.17;;;9.90;99.90;;;;;;5005628;28;20045;-87
2024/01/30 12:20:10;;;;;;;4.72;2.13;;;9.90;99.90;;;;;;5005719;28;20038;-86
2024/01/30 12:22:40;;;;;;;4.22;1.80;;;9.90;99.90;;;;;;5003379;28;20050;-86
2024/01/30 12:25:10;;;;;;;5.05;1.88;;;9.80;99.90;;;;;;5007930;28;20041;-85
2024/01/30 12:27:42;;;;;;;4.00;1.42;;;9.70;99.90;;;;;;4977635;28;20049;-86
2024/01/30 12:30:09;;;;;;;2.38;1.40;;;9.70;99.90;;;;;;5006446;28;20049;-85
2024/01/30 12:32:36;;;;;;;3.60;1.10;;;9.70;99.90;;;;;;4995271;28;20076;-85
2024/01/30 12:35:03;;;;;;;2.17;0.80;;;9.70;99.90;;;;;;5003779;28;20073;-86
2024/01/30 12:37:30;;;;;;;2.60;0.55;;;9.70;99.90;;;;;;4994588;28;20072;-85
2024/01/30 12:39:56;;;;;;;2.28;0.80;;;9.70;99.90;;;;;;5000928;28;20090;-86
2024/01/30 12:42:23;;;;;;;2.00;0.60;;;9.80;99.90;;;;;;4970333;28;20339;-86
2024/01/30 12:44:49;;;;;;;2.67;0.45;;;9.70;99.90;;;;;;4990536;28;20073;-85
2024/01/30 12:47:16;;;;;;;1.48;0.50;;;9.70;99.90;;;;;;4997064;28;20033;-86
2024/01/30 12:49:45;;;;;;;2.47;0.55;;;9.70;99.90;;;;;;5010963;28;20366;-86
2024/01/30 12:52:12;;;;;;;4.75;0.80;;;9.70;99.90;;;;;;4974699;28;20041;-85
2024/01/30 12:54:40;;;;;;;1.27;0.50;;;9.70;99.90;;;;;;4987324;28;20041;-85
2024/01/30 12:57:06;;;;;;;1.83;0.65;;;9.70;99.90;;;;;;4980275;28;20038;-86
2024/01/30 12:59:32;;;;;;;2.83;0.90;;;9.60;99.90;;;;;;4991131;28;20052;-85
2024/01/30 13:02:00;;;;;;;2.47;0.57;;;9.60;99.90;;;;;;5007506;28;20425;-85
2024/01/30 13:04:27;;;;;;;1.70;0.50;;;9.60;99.90;;;;;;5003397;28;20065;-85
2024/01/30 13:06:53;;;;;;;1.00;0.35;;;9.60;99.90;;;;;;4994288;28;20579;-86
2024/01/30 13:09:20;;;;;;;1.55;0.50;;;9.70;99.90;;;;;;4990779;28;20030;-86
2024/01/30 13:11:45;;;;;;;2.35;0.60;;;9.60;99.90;;;;;;5002897;28;20037;-85
2024/01/30 13:14:11;;;;;;;2.35;0.70;;;9.60;99.90;;;;;;4995481;28;20030;-85
2024/01/30 13:16:37;;;;;;;1.10;0.50;;;9.80;99.90;;;;;;5000693;28;20490;-86
2024/01/30 13:19:04;;;;;;;0.70;0.50;;;9.70;99.90;;;;;;4981024;28;20038;-85
2024/01/30 13:21:30;;;;;;;1.55;0.40;;;9.80;99.90;;;;;;4991479;28;20115;-85
2024/01/30 13:23:55;;;;;;;0.73;0.35;;;9.80;99.90;;;;;;5002797;28;20037;-86
2024/01/30 13:26:21;;;;;;;0.50;0.40;;;9.90;99.90;;;;;;5012254;28;20037;-85
2024/01/30 13:28:47;;;;;;;1.77;0.63;;;9.80;99.90;;;;;;4992090;28;20041;-86
2024/01/30 13:31:14;;;;;;;1.60;0.38;;;9.80;99.90;;;;;;4987244;28;20041;-85
2024/01/30 13:33:41;;;;;;;0.65;0.40;;;9.80;99.90;;;;;;5008911;28;20034;-86
2024/01/30 13:36:09;;;;;;;1.20;0.50;;;9.70;99.90;;;;;;5009319;28;20469;-86
2024/01/30 13:38:34;;;;;;;0.82;0.50;;;9.60;99.90;;;;;;5078896;27;20059;-85
2024/01/30 13:41:00;;;;;;;1.40;0.40;;;9.60;99.90;;;;;;5034376;28;20074;-85
2024/01/30 13:43:26;;;;;;;3.88;0.85;;;9.60;99.90;;;;;;5107517;27;20037;-85
2024/01/30 13:45:52;;;;;;;1.23;0.60;;;9.60;99.90;;;;;;5088601;27;20034;-86